sensor_id;sensor_type;location;lat;lon;timestamp;P1;durP1;ratioP1;P2;durP2;ratioP2
1699;SDS011;847;48.058;7.810;2022-08-21T00:00:41;3.90;;;1.60;;
1699;SDS011;847;48.058;7.810;2022-08-21T00:03:09;2.37;;;2.00;;
1699;SDS011;847;48.058;7.810;2022-08-21T00:05:37;3.57;;;1.90;;
1699;SDS011;847;48.058;7.810;2022-08-21T00:08:08;1.73;;;1.63;;
1699;SDS011;847;48.058;7.810;2022-08-21T00:10:36;2.20;;;1.53;;
1699;SDS011;847;48.058;7.810;2022-08-21T00:13:05;5.57;;;2.57;;
1699;SDS011;847;48.058;7.810;2022-08-21T00:15:32;3.80;;;1.80;;
1699;SDS011;847;48.058;7.810;2022-08-21T00:18:02;4.27;;;1.90;;
1699;SDS011;847;48.058;7.810;2022-08-21T00:20:29;2.33;;;1.80;;
1699;SDS011;847;48.058;7.810;2022-08-21T00:28:09;5.30;;;1.87;;
1699;SDS011;847;48.058;7.810;2022-08-21T00:30:37;4.20;;;1.60;;
1699;SDS011;847;48.058;7.810;2022-08-21T00:33:04;1.80;;;1.63;;
1699;SDS011;847;48.058;7.810;2022-08-21T00:35:33;1.70;;;1.60;;
1699;SDS011;847;48.058;7.810;2022-08-21T00:38:02;1.70;;;1.60;;
1699;SDS011;847;48.058;7.810;2022-08-21T00:40:31;1.83;;;1.73;;
1699;SDS011;847;48.058;7.810;2022-08-21T00:43:00;1.90;;;1.77;;
1699;SDS011;847;48.058;7.810;2022-08-21T00:45:29;3.60;;;1.70;;
1699;SDS011;847;48.058;7.810;2022-08-21T00:47:56;4.93;;;1.77;;
1699;SDS011;847;48.058;7.810;2022-08-21T00:50:24;3.80;;;2.00;;
1699;SDS011;847;48.058;7.810;2022-08-21T00:52:54;3.43;;;2.27;;
1699;SDS011;847;48.058;7.810;2022-08-21T00:55:22;2.20;;;1.90;;
1699;SDS011;847;48.058;7.810;2022-08-21T00:57:51;2.10;;;1.67;;
1699;SDS011;847;48.058;7.810;2022-08-21T01:00:22;2.17;;;1.90;;
1699;SDS011;847;48.058;7.810;2022-08-21T01:02:52;1.83;;;1.60;;
1699;SDS011;847;48.058;7.810;2022-08-21T01:05:19;3.33;;;1.87;;
1699;SDS011;847;48.058;7.810;2022-08-21T01:07:46;2.40;;;2.20;;
1699;SDS011;847;48.058;7.810;2022-08-21T01:10:13;2.93;;;2.10;;
1699;SDS011;847;48.058;7.810;2022-08-21T01:12:40;4.10;;;1.80;;
1699;SDS011;847;48.058;7.810;2022-08-21T01:15:07;3.13;;;1.83;;
1699;SDS011;847;48.058;7.810;2022-08-21T01:17:35;1.73;;;1.63;;
1699;SDS011;847;48.058;7.810;2022-08-21T01:20:05;3.10;;;1.83;;
1699;SDS011;847;48.058;7.810;2022-08-21T01:22:36;2.17;;;1.67;;
1699;SDS011;847;48.058;7.810;2022-08-21T01:25:04;2.10;;;1.93;;
1699;SDS011;847;48.058;7.810;2022-08-21T01:27:32;5.67;;;2.47;;
1699;SDS011;847;48.058;7.810;2022-08-21T01:30:02;2.33;;;2.10;;
1699;SDS011;847;48.058;7.810;2022-08-21T01:32:36;4.53;;;1.90;;
1699;SDS011;847;48.058;7.810;2022-08-21T01:35:03;1.90;;;1.60;;
1699;SDS011;847;48.058;7.810;2022-08-21T01:37:31;2.20;;;2.00;;
1699;SDS011;847;48.058;7.810;2022-08-21T01:39:59;5.33;;;1.63;;
1699;SDS011;847;48.058;7.810;2022-08-21T01:42:25;3.63;;;1.60;;
1699;SDS011;847;48.058;7.810;2022-08-21T01:44:52;2.40;;;1.83;;
1699;SDS011;847;48.058;7.810;2022-08-21T01:47:19;2.90;;;1.60;;
1699;SDS011;847;48.058;7.810;2022-08-21T01:49:46;3.30;;;1.80;;
1699;SDS011;847;48.058;7.810;2022-08-21T01:52:12;2.50;;;1.73;;
1699;SDS011;847;48.058;7.810;2022-08-21T01:54:39;2.20;;;1.73;;
1699;SDS011;847;48.058;7.810;2022-08-21T01:57:08;4.03;;;1.70;;
1699;SDS011;847;48.058;7.810;2022-08-21T01:59:36;2.60;;;2.00;;
1699;SDS011;847;48.058;7.810;2022-08-21T02:02:02;4.10;;;1.57;;
1699;SDS011;847;48.058;7.810;2022-08-21T02:04:29;2.13;;;1.70;;
1699;SDS011;847;48.058;7.810;2022-08-21T02:06:56;2.33;;;2.13;;
1699;SDS011;847;48.058;7.810;2022-08-21T02:09:23;5.13;;;2.20;;
1699;SDS011;847;48.058;7.810;2022-08-21T02:11:50;3.03;;;2.00;;
1699;SDS011;847;48.058;7.810;2022-08-21T02:14:18;2.53;;;1.97;;
1699;SDS011;847;48.058;7.810;2022-08-21T02:16:45;6.67;;;1.57;;
1699;SDS011;847;48.058;7.810;2022-08-21T02:19:13;3.93;;;1.93;;
1699;SDS011;847;48.058;7.810;2022-08-21T02:21:41;3.30;;;1.70;;
1699;SDS011;847;48.058;7.810;2022-08-21T02:24:08;2.77;;;2.10;;
1699;SDS011;847;48.058;7.810;2022-08-21T02:26:36;3.80;;;1.70;;
1699;SDS011;847;48.058;7.810;2022-08-21T02:29:03;2.37;;;2.17;;
1699;SDS011;847;48.058;7.810;2022-08-21T02:31:32;2.00;;;1.90;;
1699;SDS011;847;48.058;7.810;2022-08-21T02:33:59;1.90;;;1.80;;
1699;SDS011;847;48.058;7.810;2022-08-21T02:36:26;4.07;;;2.20;;
1699;SDS011;847;48.058;7.810;2022-08-21T02:38:53;1.90;;;1.80;;
1699;SDS011;847;48.058;7.810;2022-08-21T02:41:21;2.17;;;1.80;;
1699;SDS011;847;48.058;7.810;2022-08-21T02:43:49;2.40;;;2.20;;
1699;SDS011;847;48.058;7.810;2022-08-21T02:46:18;2.73;;;2.00;;
1699;SDS011;847;48.058;7.810;2022-08-21T02:48:47;1.90;;;1.70;;
1699;SDS011;847;48.058;7.810;2022-08-21T02:51:14;3.73;;;2.07;;
1699;SDS011;847;48.058;7.810;2022-08-21T02:53:45;2.40;;;2.20;;
1699;SDS011;847;48.058;7.810;2022-08-21T02:56:14;2.97;;;2.17;;
1699;SDS011;847;48.058;7.810;2022-08-21T02:58:44;1.97;;;1.80;;
1699;SDS011;847;48.058;7.810;2022-08-21T03:01:12;4.63;;;2.10;;
1699;SDS011;847;48.058;7.810;2022-08-21T03:03:41;1.77;;;1.67;;
1699;SDS011;847;48.058;7.810;2022-08-21T03:06:12;4.13;;;2.17;;
1699;SDS011;847;48.058;7.810;2022-08-21T03:08:40;4.70;;;2.20;;
1699;SDS011;847;48.058;7.810;2022-08-21T03:11:09;5.23;;;1.90;;
1699;SDS011;847;48.058;7.810;2022-08-21T03:13:37;6.30;;;2.10;;
1699;SDS011;847;48.058;7.810;2022-08-21T03:16:04;2.40;;;1.80;;
1699;SDS011;847;48.058;7.810;2022-08-21T03:18:31;2.90;;;2.03;;
1699;SDS011;847;48.058;7.810;2022-08-21T03:20:58;1.70;;;1.60;;
1699;SDS011;847;48.058;7.810;2022-08-21T03:23:26;3.33;;;1.87;;
1699;SDS011;847;48.058;7.810;2022-08-21T03:25:55;4.07;;;1.80;;
1699;SDS011;847;48.058;7.810;2022-08-21T03:28:23;3.50;;;2.00;;
1699;SDS011;847;48.058;7.810;2022-08-21T03:30:50;1.83;;;1.73;;
1699;SDS011;847;48.058;7.810;2022-08-21T03:33:19;1.97;;;1.73;;
1699;SDS011;847;48.058;7.810;2022-08-21T03:35:47;2.93;;;1.90;;
1699;SDS011;847;48.058;7.810;2022-08-21T03:38:17;5.83;;;1.90;;
1699;SDS011;847;48.058;7.810;2022-08-21T03:40:46;2.03;;;1.80;;
1699;SDS011;847;48.058;7.810;2022-08-21T03:43:12;2.73;;;2.00;;
1699;SDS011;847;48.058;7.810;2022-08-21T03:45:39;2.07;;;1.67;;
1699;SDS011;847;48.058;7.810;2022-08-21T03:48:06;2.40;;;1.80;;
1699;SDS011;847;48.058;7.810;2022-08-21T03:50:34;3.50;;;2.00;;
1699;SDS011;847;48.058;7.810;2022-08-21T03:53:03;2.20;;;1.83;;
1699;SDS011;847;48.058;7.810;2022-08-21T03:55:31;2.53;;;1.90;;
1699;SDS011;847;48.058;7.810;2022-08-21T03:57:59;3.13;;;2.10;;
1699;SDS011;847;48.058;7.810;2022-08-21T04:00:26;5.37;;;2.20;;
1699;SDS011;847;48.058;7.810;2022-08-21T04:02:53;8.60;;;2.20;;
1699;SDS011;847;48.058;7.810;2022-08-21T04:05:20;3.50;;;1.70;;
1699;SDS011;847;48.058;7.810;2022-08-21T04:07:53;5.67;;;2.03;;
1699;SDS011;847;48.058;7.810;2022-08-21T04:10:21;5.60;;;2.73;;
1699;SDS011;847;48.058;7.810;2022-08-21T04:12:50;2.77;;;1.60;;
1699;SDS011;847;48.058;7.810;2022-08-21T04:15:19;5.90;;;2.03;;
1699;SDS011;847;48.058;7.810;2022-08-21T04:17:46;2.70;;;1.87;;
1699;SDS011;847;48.058;7.810;2022-08-21T04:20:13;3.50;;;2.30;;
1699;SDS011;847;48.058;7.810;2022-08-21T04:22:40;5.70;;;2.50;;
1699;SDS011;847;48.058;7.810;2022-08-21T04:25:07;3.80;;;1.70;;
1699;SDS011;847;48.058;7.810;2022-08-21T04:27:34;1.80;;;1.70;;
1699;SDS011;847;48.058;7.810;2022-08-21T04:30:01;5.67;;;2.10;;
1699;SDS011;847;48.058;7.810;2022-08-21T04:32:30;2.13;;;1.93;;
1699;SDS011;847;48.058;7.810;2022-08-21T04:34:58;3.60;;;2.27;;
1699;SDS011;847;48.058;7.810;2022-08-21T04:37:26;3.40;;;1.83;;
1699;SDS011;847;48.058;7.810;2022-08-21T04:39:53;2.67;;;2.23;;
1699;SDS011;847;48.058;7.810;2022-08-21T04:42:21;6.50;;;2.10;;
1699;SDS011;847;48.058;7.810;2022-08-21T04:44:48;4.57;;;2.13;;
1699;SDS011;847;48.058;7.810;2022-08-21T04:47:15;3.10;;;1.83;;
1699;SDS011;847;48.058;7.810;2022-08-21T04:49:43;4.23;;;2.60;;
1699;SDS011;847;48.058;7.810;2022-08-21T04:52:11;2.97;;;2.60;;
1699;SDS011;847;48.058;7.810;2022-08-21T04:54:39;3.40;;;2.90;;
1699;SDS011;847;48.058;7.810;2022-08-21T04:57:08;4.23;;;1.93;;
1699;SDS011;847;48.058;7.810;2022-08-21T04:59:36;2.47;;;2.27;;
1699;SDS011;847;48.058;7.810;2022-08-21T05:02:06;4.33;;;2.30;;
1699;SDS011;847;48.058;7.810;2022-08-21T05:04:34;2.33;;;2.10;;
1699;SDS011;847;48.058;7.810;2022-08-21T05:07:05;5.00;;;2.20;;
1699;SDS011;847;48.058;7.810;2022-08-21T05:09:36;2.70;;;2.20;;
1699;SDS011;847;48.058;7.810;2022-08-21T05:12:04;5.00;;;2.97;;
1699;SDS011;847;48.058;7.810;2022-08-21T05:14:31;2.27;;;2.07;;
1699;SDS011;847;48.058;7.810;2022-08-21T05:16:58;3.80;;;2.40;;
1699;SDS011;847;48.058;7.810;2022-08-21T05:19:25;4.50;;;2.70;;
1699;SDS011;847;48.058;7.810;2022-08-21T05:21:52;5.73;;;3.10;;
1699;SDS011;847;48.058;7.810;2022-08-21T05:24:21;5.00;;;2.60;;
1699;SDS011;847;48.058;7.810;2022-08-21T05:26:48;5.23;;;3.30;;
1699;SDS011;847;48.058;7.810;2022-08-21T05:29:14;4.23;;;2.80;;
1699;SDS011;847;48.058;7.810;2022-08-21T05:31:42;3.13;;;2.83;;
1699;SDS011;847;48.058;7.810;2022-08-21T05:34:09;2.17;;;2.07;;
1699;SDS011;847;48.058;7.810;2022-08-21T05:36:35;3.47;;;2.70;;
1699;SDS011;847;48.058;7.810;2022-08-21T05:39:02;8.37;;;3.40;;
1699;SDS011;847;48.058;7.810;2022-08-21T05:41:31;7.33;;;3.00;;
1699;SDS011;847;48.058;7.810;2022-08-21T05:43:57;4.03;;;2.30;;
1699;SDS011;847;48.058;7.810;2022-08-21T05:46:24;5.13;;;2.30;;
1699;SDS011;847;48.058;7.810;2022-08-21T05:48:51;3.20;;;2.90;;
1699;SDS011;847;48.058;7.810;2022-08-21T05:51:18;4.03;;;3.37;;
1699;SDS011;847;48.058;7.810;2022-08-21T05:53:44;4.93;;;2.90;;
1699;SDS011;847;48.058;7.810;2022-08-21T05:56:12;5.93;;;3.13;;
1699;SDS011;847;48.058;7.810;2022-08-21T05:58:41;3.67;;;2.77;;
1699;SDS011;847;48.058;7.810;2022-08-21T06:01:08;5.03;;;3.20;;
1699;SDS011;847;48.058;7.810;2022-08-21T06:03:36;3.77;;;3.03;;
1699;SDS011;847;48.058;7.810;2022-08-21T06:06:05;4.00;;;2.97;;
1699;SDS011;847;48.058;7.810;2022-08-21T06:08:33;6.83;;;3.30;;
1699;SDS011;847;48.058;7.810;2022-08-21T06:11:00;3.77;;;3.27;;
1699;SDS011;847;48.058;7.810;2022-08-21T06:13:28;4.40;;;3.07;;
1699;SDS011;847;48.058;7.810;2022-08-21T06:16:03;6.10;;;3.73;;
1699;SDS011;847;48.058;7.810;2022-08-21T06:18:32;3.97;;;3.13;;
1699;SDS011;847;48.058;7.810;2022-08-21T06:20:59;3.80;;;3.40;;
1699;SDS011;847;48.058;7.810;2022-08-21T06:23:25;5.13;;;2.77;;
1699;SDS011;847;48.058;7.810;2022-08-21T06:25:52;4.93;;;3.70;;
1699;SDS011;847;48.058;7.810;2022-08-21T06:28:19;5.30;;;3.00;;
1699;SDS011;847;48.058;7.810;2022-08-21T06:30:46;3.80;;;2.90;;
1699;SDS011;847;48.058;7.810;2022-08-21T06:33:14;3.53;;;3.00;;
1699;SDS011;847;48.058;7.810;2022-08-21T06:35:41;7.10;;;3.50;;
1699;SDS011;847;48.058;7.810;2022-08-21T06:38:08;4.97;;;3.40;;
1699;SDS011;847;48.058;7.810;2022-08-21T06:40:35;4.03;;;3.63;;
1699;SDS011;847;48.058;7.810;2022-08-21T06:43:05;3.20;;;3.00;;
1699;SDS011;847;48.058;7.810;2022-08-21T06:45:33;4.63;;;2.87;;
1699;SDS011;847;48.058;7.810;2022-08-21T06:48:00;5.83;;;3.17;;
1699;SDS011;847;48.058;7.810;2022-08-21T06:50:28;4.47;;;3.30;;
1699;SDS011;847;48.058;7.810;2022-08-21T06:52:59;6.57;;;3.60;;
1699;SDS011;847;48.058;7.810;2022-08-21T06:55:26;6.50;;;3.43;;
1699;SDS011;847;48.058;7.810;2022-08-21T06:57:53;8.43;;;3.40;;
1699;SDS011;847;48.058;7.810;2022-08-21T07:00:20;6.30;;;4.20;;
1699;SDS011;847;48.058;7.810;2022-08-21T07:02:47;5.40;;;3.70;;
1699;SDS011;847;48.058;7.810;2022-08-21T07:05:14;7.03;;;3.40;;
1699;SDS011;847;48.058;7.810;2022-08-21T07:07:42;8.23;;;3.80;;
1699;SDS011;847;48.058;7.810;2022-08-21T07:10:09;4.63;;;3.37;;
1699;SDS011;847;48.058;7.810;2022-08-21T07:12:36;7.60;;;3.17;;
1699;SDS011;847;48.058;7.810;2022-08-21T07:15:03;6.47;;;3.10;;
1699;SDS011;847;48.058;7.810;2022-08-21T07:17:31;7.10;;;3.40;;
1699;SDS011;847;48.058;7.810;2022-08-21T07:19:57;3.33;;;3.03;;
1699;SDS011;847;48.058;7.810;2022-08-21T07:22:24;3.50;;;2.70;;
1699;SDS011;847;48.058;7.810;2022-08-21T07:24:53;4.50;;;3.23;;
1699;SDS011;847;48.058;7.810;2022-08-21T07:27:20;7.97;;;3.57;;
1699;SDS011;847;48.058;7.810;2022-08-21T07:29:47;9.37;;;4.10;;
1699;SDS011;847;48.058;7.810;2022-08-21T07:32:14;6.90;;;3.30;;
1699;SDS011;847;48.058;7.810;2022-08-21T07:34:41;4.13;;;3.23;;
1699;SDS011;847;48.058;7.810;2022-08-21T07:37:08;8.27;;;3.83;;
1699;SDS011;847;48.058;7.810;2022-08-21T07:39:35;5.57;;;3.50;;
1699;SDS011;847;48.058;7.810;2022-08-21T07:42:03;6.13;;;2.87;;
1699;SDS011;847;48.058;7.810;2022-08-21T07:44:30;3.67;;;3.23;;
1699;SDS011;847;48.058;7.810;2022-08-21T07:46:56;7.70;;;3.17;;
1699;SDS011;847;48.058;7.810;2022-08-21T07:49:23;4.00;;;3.17;;
1699;SDS011;847;48.058;7.810;2022-08-21T07:51:50;3.70;;;3.30;;
1699;SDS011;847;48.058;7.810;2022-08-21T07:54:17;5.87;;;3.63;;
1699;SDS011;847;48.058;7.810;2022-08-21T07:56:43;5.10;;;3.23;;
1699;SDS011;847;48.058;7.810;2022-08-21T07:59:12;3.90;;;3.00;;
1699;SDS011;847;48.058;7.810;2022-08-21T08:01:38;4.90;;;3.10;;
1699;SDS011;847;48.058;7.810;2022-08-21T08:04:05;4.63;;;3.00;;
1699;SDS011;847;48.058;7.810;2022-08-21T08:06:32;4.43;;;2.93;;
1699;SDS011;847;48.058;7.810;2022-08-21T08:08:59;4.07;;;2.90;;
1699;SDS011;847;48.058;7.810;2022-08-21T08:11:28;5.47;;;3.20;;
1699;SDS011;847;48.058;7.810;2022-08-21T08:13:55;3.70;;;2.90;;
1699;SDS011;847;48.058;7.810;2022-08-21T08:16:24;5.80;;;2.70;;
1699;SDS011;847;48.058;7.810;2022-08-21T08:18:51;5.80;;;3.27;;
1699;SDS011;847;48.058;7.810;2022-08-21T08:21:19;4.70;;;3.70;;
1699;SDS011;847;48.058;7.810;2022-08-21T08:23:46;5.47;;;2.90;;
1699;SDS011;847;48.058;7.810;2022-08-21T08:26:13;4.27;;;3.37;;
1699;SDS011;847;48.058;7.810;2022-08-21T08:28:40;8.80;;;3.20;;
1699;SDS011;847;48.058;7.810;2022-08-21T08:31:07;5.23;;;3.40;;
1699;SDS011;847;48.058;7.810;2022-08-21T08:33:35;3.90;;;2.73;;
1699;SDS011;847;48.058;7.810;2022-08-21T08:36:08;4.50;;;2.50;;
1699;SDS011;847;48.058;7.810;2022-08-21T08:38:39;5.00;;;3.60;;
1699;SDS011;847;48.058;7.810;2022-08-21T08:41:07;5.17;;;4.10;;
1699;SDS011;847;48.058;7.810;2022-08-21T08:43:38;4.03;;;2.73;;
1699;SDS011;847;48.058;7.810;2022-08-21T08:46:09;6.00;;;3.17;;
1699;SDS011;847;48.058;7.810;2022-08-21T08:48:43;6.30;;;3.10;;
1699;SDS011;847;48.058;7.810;2022-08-21T08:51:15;4.33;;;2.90;;
1699;SDS011;847;48.058;7.810;2022-08-21T08:53:48;4.17;;;2.90;;
1699;SDS011;847;48.058;7.810;2022-08-21T08:56:18;4.30;;;3.23;;
1699;SDS011;847;48.058;7.810;2022-08-21T08:58:52;8.60;;;3.40;;
1699;SDS011;847;48.058;7.810;2022-08-21T09:01:22;4.67;;;2.80;;
1699;SDS011;847;48.058;7.810;2022-08-21T09:03:50;5.80;;;3.60;;
1699;SDS011;847;48.058;7.810;2022-08-21T09:06:24;4.17;;;3.20;;
1699;SDS011;847;48.058;7.810;2022-08-21T09:09:02;5.20;;;3.10;;
1699;SDS011;847;48.058;7.810;2022-08-21T09:11:37;5.70;;;3.47;;
1699;SDS011;847;48.058;7.810;2022-08-21T09:14:12;3.50;;;2.67;;
1699;SDS011;847;48.058;7.810;2022-08-21T09:16:47;5.83;;;3.00;;
1699;SDS011;847;48.058;7.810;2022-08-21T09:19:28;3.30;;;3.00;;
1699;SDS011;847;48.058;7.810;2022-08-21T09:22:03;6.83;;;3.20;;
1699;SDS011;847;48.058;7.810;2022-08-21T09:24:37;4.53;;;3.30;;
1699;SDS011;847;48.058;7.810;2022-08-21T09:27:11;4.73;;;3.10;;
1699;SDS011;847;48.058;7.810;2022-08-21T09:29:40;4.20;;;3.50;;
1699;SDS011;847;48.058;7.810;2022-08-21T09:32:10;5.10;;;3.40;;
1699;SDS011;847;48.058;7.810;2022-08-21T09:34:42;9.20;;;3.30;;
1699;SDS011;847;48.058;7.810;2022-08-21T09:37:15;5.40;;;2.93;;
1699;SDS011;847;48.058;7.810;2022-08-21T09:39:43;6.43;;;3.13;;
1699;SDS011;847;48.058;7.810;2022-08-21T09:42:10;5.00;;;3.00;;
1699;SDS011;847;48.058;7.810;2022-08-21T09:44:37;5.80;;;3.30;;
1699;SDS011;847;48.058;7.810;2022-08-21T09:47:09;7.20;;;3.40;;
1699;SDS011;847;48.058;7.810;2022-08-21T09:49:38;4.40;;;3.07;;
1699;SDS011;847;48.058;7.810;2022-08-21T09:52:15;5.17;;;3.73;;
1699;SDS011;847;48.058;7.810;2022-08-21T09:54:48;7.93;;;3.87;;
1699;SDS011;847;48.058;7.810;2022-08-21T09:57:19;8.87;;;4.00;;
1699;SDS011;847;48.058;7.810;2022-08-21T10:00:08;7.10;;;4.10;;
1699;SDS011;847;48.058;7.810;2022-08-21T10:02:36;8.63;;;3.73;;
1699;SDS011;847;48.058;7.810;2022-08-21T10:05:06;5.33;;;3.70;;
1699;SDS011;847;48.058;7.810;2022-08-21T10:07:42;6.63;;;3.57;;
1699;SDS011;847;48.058;7.810;2022-08-21T10:10:14;4.67;;;2.87;;
1699;SDS011;847;48.058;7.810;2022-08-21T10:12:45;9.20;;;2.97;;
1699;SDS011;847;48.058;7.810;2022-08-21T10:15:20;4.37;;;3.20;;
1699;SDS011;847;48.058;7.810;2022-08-21T10:18:04;8.23;;;3.83;;
1699;SDS011;847;48.058;7.810;2022-08-21T10:20:43;3.07;;;2.60;;
1699;SDS011;847;48.058;7.810;2022-08-21T10:23:20;10.90;;;3.00;;
1699;SDS011;847;48.058;7.810;2022-08-21T10:26:02;2.87;;;2.63;;
1699;SDS011;847;48.058;7.810;2022-08-21T10:28:37;7.57;;;3.13;;
1699;SDS011;847;48.058;7.810;2022-08-21T10:31:18;4.13;;;2.67;;
1699;SDS011;847;48.058;7.810;2022-08-21T10:33:57;4.00;;;3.00;;
1699;SDS011;847;48.058;7.810;2022-08-21T10:36:44;4.30;;;3.13;;
1699;SDS011;847;48.058;7.810;2022-08-21T10:39:15;2.70;;;2.50;;
1699;SDS011;847;48.058;7.810;2022-08-21T10:41:50;5.47;;;2.90;;
1699;SDS011;847;48.058;7.810;2022-08-21T10:44:37;5.57;;;2.70;;
1699;SDS011;847;48.058;7.810;2022-08-21T10:47:12;3.17;;;2.30;;
1699;SDS011;847;48.058;7.810;2022-08-21T10:49:45;5.93;;;2.80;;
1699;SDS011;847;48.058;7.810;2022-08-21T10:52:26;2.93;;;2.30;;
1699;SDS011;847;48.058;7.810;2022-08-21T10:55:14;3.20;;;2.40;;
1699;SDS011;847;48.058;7.810;2022-08-21T10:57:46;2.80;;;2.03;;
1699;SDS011;847;48.058;7.810;2022-08-21T11:00:16;3.87;;;2.00;;
1699;SDS011;847;48.058;7.810;2022-08-21T11:02:47;5.60;;;2.40;;
1699;SDS011;847;48.058;7.810;2022-08-21T11:05:19;4.23;;;2.17;;
1699;SDS011;847;48.058;7.810;2022-08-21T11:07:52;2.10;;;1.73;;
1699;SDS011;847;48.058;7.810;2022-08-21T11:10:22;2.77;;;2.10;;
1699;SDS011;847;48.058;7.810;2022-08-21T11:12:52;3.40;;;1.77;;
1699;SDS011;847;48.058;7.810;2022-08-21T11:15:26;3.77;;;1.90;;
1699;SDS011;847;48.058;7.810;2022-08-21T11:18:00;5.63;;;1.90;;
1699;SDS011;847;48.058;7.810;2022-08-21T11:20:32;2.50;;;1.93;;
1699;SDS011;847;48.058;7.810;2022-08-21T11:23:07;2.53;;;2.20;;
1699;SDS011;847;48.058;7.810;2022-08-21T11:25:42;2.63;;;2.00;;
1699;SDS011;847;48.058;7.810;2022-08-21T11:28:15;3.27;;;1.67;;
1699;SDS011;847;48.058;7.810;2022-08-21T11:30:55;3.20;;;1.63;;
1699;SDS011;847;48.058;7.810;2022-08-21T11:33:34;2.40;;;1.60;;
1699;SDS011;847;48.058;7.810;2022-08-21T11:36:15;3.23;;;1.80;;
1699;SDS011;847;48.058;7.810;2022-08-21T11:38:50;2.40;;;1.50;;
1699;SDS011;847;48.058;7.810;2022-08-21T11:41:27;4.33;;;1.80;;
1699;SDS011;847;48.058;7.810;2022-08-21T11:43:58;2.33;;;1.77;;
1699;SDS011;847;48.058;7.810;2022-08-21T11:46:31;2.20;;;1.40;;
1699;SDS011;847;48.058;7.810;2022-08-21T11:49:10;2.50;;;1.37;;
1699;SDS011;847;48.058;7.810;2022-08-21T11:51:47;2.43;;;1.90;;
1699;SDS011;847;48.058;7.810;2022-08-21T11:54:20;2.80;;;2.30;;
1699;SDS011;847;48.058;7.810;2022-08-21T11:56:55;6.53;;;2.10;;
1699;SDS011;847;48.058;7.810;2022-08-21T11:59:27;6.23;;;2.40;;
1699;SDS011;847;48.058;7.810;2022-08-21T12:02:00;3.20;;;2.20;;
1699;SDS011;847;48.058;7.810;2022-08-21T12:04:28;2.43;;;1.80;;
1699;SDS011;847;48.058;7.810;2022-08-21T12:07:08;4.03;;;2.23;;
1699;SDS011;847;48.058;7.810;2022-08-21T12:09:37;2.50;;;2.20;;
1699;SDS011;847;48.058;7.810;2022-08-21T12:12:06;3.53;;;2.20;;
1699;SDS011;847;48.058;7.810;2022-08-21T12:14:38;6.00;;;2.13;;
1699;SDS011;847;48.058;7.810;2022-08-21T12:17:08;3.03;;;2.40;;
1699;SDS011;847;48.058;7.810;2022-08-21T12:19:43;2.50;;;1.90;;
1699;SDS011;847;48.058;7.810;2022-08-21T12:22:11;3.67;;;2.20;;
1699;SDS011;847;48.058;7.810;2022-08-21T12:24:39;3.10;;;1.80;;
1699;SDS011;847;48.058;7.810;2022-08-21T12:27:22;3.20;;;2.33;;
1699;SDS011;847;48.058;7.810;2022-08-21T12:29:54;2.70;;;2.30;;
1699;SDS011;847;48.058;7.810;2022-08-21T12:32:25;4.27;;;2.37;;
1699;SDS011;847;48.058;7.810;2022-08-21T12:34:56;2.93;;;1.90;;
1699;SDS011;847;48.058;7.810;2022-08-21T12:37:30;3.57;;;2.30;;
1699;SDS011;847;48.058;7.810;2022-08-21T12:40:04;1.90;;;1.57;;
1699;SDS011;847;48.058;7.810;2022-08-21T12:42:41;3.10;;;1.90;;
1699;SDS011;847;48.058;7.810;2022-08-21T12:45:17;4.13;;;2.60;;
1699;SDS011;847;48.058;7.810;2022-08-21T12:47:47;5.07;;;2.27;;
1699;SDS011;847;48.058;7.810;2022-08-21T12:50:19;3.20;;;1.93;;
1699;SDS011;847;48.058;7.810;2022-08-21T12:52:51;2.23;;;1.63;;
1699;SDS011;847;48.058;7.810;2022-08-21T12:55:26;5.40;;;2.43;;
1699;SDS011;847;48.058;7.810;2022-08-21T12:57:55;3.03;;;2.13;;
1699;SDS011;847;48.058;7.810;2022-08-21T13:00:24;2.70;;;2.10;;
1699;SDS011;847;48.058;7.810;2022-08-21T13:02:53;2.40;;;1.80;;
1699;SDS011;847;48.058;7.810;2022-08-21T13:05:23;2.03;;;1.80;;
1699;SDS011;847;48.058;7.810;2022-08-21T13:07:54;3.03;;;1.97;;
1699;SDS011;847;48.058;7.810;2022-08-21T13:10:23;2.57;;;2.00;;
1699;SDS011;847;48.058;7.810;2022-08-21T13:12:53;3.40;;;2.30;;
1699;SDS011;847;48.058;7.810;2022-08-21T13:15:23;3.13;;;2.07;;
1699;SDS011;847;48.058;7.810;2022-08-21T13:17:52;9.20;;;2.40;;
1699;SDS011;847;48.058;7.810;2022-08-21T13:20:20;6.37;;;2.30;;
1699;SDS011;847;48.058;7.810;2022-08-21T13:22:49;3.93;;;2.40;;
1699;SDS011;847;48.058;7.810;2022-08-21T13:25:17;4.07;;;1.80;;
1699;SDS011;847;48.058;7.810;2022-08-21T13:27:57;2.93;;;2.40;;
1699;SDS011;847;48.058;7.810;2022-08-21T13:30:26;2.83;;;2.50;;
1699;SDS011;847;48.058;7.810;2022-08-21T13:32:55;4.17;;;2.20;;
1699;SDS011;847;48.058;7.810;2022-08-21T13:35:25;3.00;;;2.03;;
1699;SDS011;847;48.058;7.810;2022-08-21T13:37:56;4.37;;;2.33;;
1699;SDS011;847;48.058;7.810;2022-08-21T13:40:26;4.17;;;2.60;;
1699;SDS011;847;48.058;7.810;2022-08-21T13:43:11;2.30;;;2.10;;
1699;SDS011;847;48.058;7.810;2022-08-21T13:45:42;2.80;;;2.03;;
1699;SDS011;847;48.058;7.810;2022-08-21T13:48:11;6.90;;;2.57;;
1699;SDS011;847;48.058;7.810;2022-08-21T13:50:37;2.43;;;2.23;;
1699;SDS011;847;48.058;7.810;2022-08-21T13:53:06;4.37;;;1.80;;
1699;SDS011;847;48.058;7.810;2022-08-21T13:55:46;2.97;;;2.67;;
1699;SDS011;847;48.058;7.810;2022-08-21T13:58:23;2.70;;;2.33;;
1699;SDS011;847;48.058;7.810;2022-08-21T14:00:51;3.43;;;1.70;;
1699;SDS011;847;48.058;7.810;2022-08-21T14:03:23;3.20;;;1.90;;
1699;SDS011;847;48.058;7.810;2022-08-21T14:05:54;4.23;;;2.20;;
1699;SDS011;847;48.058;7.810;2022-08-21T14:08:24;2.80;;;2.23;;
1699;SDS011;847;48.058;7.810;2022-08-21T14:10:57;2.30;;;2.07;;
1699;SDS011;847;48.058;7.810;2022-08-21T14:13:29;2.67;;;2.03;;
1699;SDS011;847;48.058;7.810;2022-08-21T14:16:02;4.87;;;2.17;;
1699;SDS011;847;48.058;7.810;2022-08-21T14:18:44;3.37;;;2.07;;
1699;SDS011;847;48.058;7.810;2022-08-21T14:21:12;2.57;;;1.77;;
1699;SDS011;847;48.058;7.810;2022-08-21T14:23:39;3.27;;;2.03;;
1699;SDS011;847;48.058;7.810;2022-08-21T14:26:07;3.00;;;2.13;;
1699;SDS011;847;48.058;7.810;2022-08-21T14:28:39;3.77;;;2.30;;
1699;SDS011;847;48.058;7.810;2022-08-21T14:31:11;5.87;;;2.40;;
1699;SDS011;847;48.058;7.810;2022-08-21T14:33:39;5.57;;;2.27;;
1699;SDS011;847;48.058;7.810;2022-08-21T14:36:06;4.20;;;1.90;;
1699;SDS011;847;48.058;7.810;2022-08-21T14:38:34;4.23;;;2.30;;
1699;SDS011;847;48.058;7.810;2022-08-21T14:41:03;3.80;;;2.40;;
1699;SDS011;847;48.058;7.810;2022-08-21T14:43:42;4.37;;;1.83;;
1699;SDS011;847;48.058;7.810;2022-08-21T14:46:09;4.03;;;1.80;;
1699;SDS011;847;48.058;7.810;2022-08-21T14:48:37;2.60;;;2.00;;
1699;SDS011;847;48.058;7.810;2022-08-21T14:51:04;4.50;;;1.63;;
1699;SDS011;847;48.058;7.810;2022-08-21T14:53:31;2.60;;;1.80;;
1699;SDS011;847;48.058;7.810;2022-08-21T14:55:57;2.53;;;2.00;;
1699;SDS011;847;48.058;7.810;2022-08-21T14:58:30;3.80;;;2.03;;
1699;SDS011;847;48.058;7.810;2022-08-21T15:00:59;3.70;;;2.10;;
1699;SDS011;847;48.058;7.810;2022-08-21T15:03:28;1.70;;;1.60;;
1699;SDS011;847;48.058;7.810;2022-08-21T15:05:55;2.20;;;2.00;;
1699;SDS011;847;48.058;7.810;2022-08-21T15:08:22;2.37;;;1.80;;
1699;SDS011;847;48.058;7.810;2022-08-21T15:10:50;2.53;;;1.70;;
1699;SDS011;847;48.058;7.810;2022-08-21T15:13:18;3.53;;;2.17;;
1699;SDS011;847;48.058;7.810;2022-08-21T15:15:45;3.20;;;2.27;;
1699;SDS011;847;48.058;7.810;2022-08-21T15:18:16;2.07;;;1.87;;
1699;SDS011;847;48.058;7.810;2022-08-21T15:20:42;3.17;;;2.07;;
1699;SDS011;847;48.058;7.810;2022-08-21T15:23:09;2.13;;;1.70;;
1699;SDS011;847;48.058;7.810;2022-08-21T15:25:36;3.67;;;2.07;;
1699;SDS011;847;48.058;7.810;2022-08-21T15:28:05;3.33;;;1.93;;
1699;SDS011;847;48.058;7.810;2022-08-21T15:30:32;2.70;;;1.80;;
1699;SDS011;847;48.058;7.810;2022-08-21T15:33:00;1.97;;;1.70;;
1699;SDS011;847;48.058;7.810;2022-08-21T15:35:28;2.47;;;1.90;;
1699;SDS011;847;48.058;7.810;2022-08-21T15:37:55;3.70;;;2.70;;
1699;SDS011;847;48.058;7.810;2022-08-21T15:40:22;3.73;;;1.70;;
1699;SDS011;847;48.058;7.810;2022-08-21T15:42:56;3.83;;;2.70;;
1699;SDS011;847;48.058;7.810;2022-08-21T15:45:25;3.13;;;1.80;;
1699;SDS011;847;48.058;7.810;2022-08-21T15:47:51;2.17;;;1.97;;
1699;SDS011;847;48.058;7.810;2022-08-21T15:50:19;3.40;;;1.90;;